Time;durP1;ratioP1;P1;durP2;ratioP2;P2;SDS_P1;SDS_P2;PMS_P1;PMS_P2;Temp;Humidity;BMP_temperature;BMP_pressure;BME280_temperature;BME280_humidity;BME280_pressure;Samples;Min_cycle;Max_cycle;Signal;HPM_P1;HPM_P2
2023/02/18 00:00:59;;;;;;;7.30;4.30;;;10.80;99.90;;;;;;5050920;28;20266;-56
2023/02/18 00:03:26;;;;;;;4.10;3.73;;;10.20;99.90;;;;;;5033815;28;20187;-55
2023/02/18 00:05:52;;;;;;;4.07;3.50;;;10.30;99.90;;;;;;5050694;28;20230;-54
2023/02/18 00:08:18;;;;;;;5.73;4.13;;;;;;;;;;5050706;28;20234;-54
2023/02/18 00:10:44;;;;;;;4.20;3.80;;;;;;;;;;5050807;28;20180;-56
2023/02/18 00:13:10;;;;;;;4.53;3.90;;;;;;;;;;5050996;28;20179;-54
2023/02/18 00:15:37;;;;;;;3.70;3.30;;;10.10;99.90;;;;;;5051002;28;20265;-50
2023/02/18 00:18:03;;;;;;;4.97;3.73;;;10.40;99.90;;;;;;5053249;28;20300;-57
2023/02/18 00:20:29;;;;;;;4.03;3.37;;;10.90;99.90;;;;;;5050693;28;20190;-52
2023/02/18 00:22:55;;;;;;;4.47;3.40;;;;;;;;;;5050748;28;20179;-54
2023/02/18 00:25:21;;;;;;;4.63;3.80;;;;;;;;;;5052821;28;20558;-55
2023/02/18 00:27:47;;;;;;;4.93;3.53;;;;;;;;;;5054078;28;20317;-56
2023/02/18 00:30:13;;;;;;;4.67;3.20;;;10.50;99.90;;;;;;5054311;28;20194;-53
2023/02/18 00:32:38;;;;;;;4.97;3.60;;;10.90;99.90;;;;;;5053976;28;20183;-54
2023/02/18 00:35:04;;;;;;;5.03;3.43;;;10.70;99.90;;;;;;5054858;28;20179;-54
2023/02/18 00:37:29;;;;;;;4.43;3.57;;;10.50;99.90;;;;;;5055995;28;20294;-54
2023/02/18 00:39:55;;;;;;;3.73;3.33;;;;;;;;;;5056666;28;20183;-54
2023/02/18 00:42:21;;;;;;;6.73;3.90;;;11.00;99.90;;;;;;5054068;28;20218;-53
2023/02/18 00:44:47;;;;;;;3.63;3.33;;;11.20;99.90;;;;;;5034195;28;20233;-55
2023/02/18 00:47:12;;;;;;;4.17;3.67;;;;;;;;;;5051731;28;20237;-55
2023/02/18 00:49:38;;;;;;;5.80;3.90;;;11.20;99.90;;;;;;5052559;28;20183;-52
2023/02/18 00:52:04;;;;;;;4.33;3.43;;;;;;;;;;5053237;28;20171;-55
2023/02/18 00:54:30;;;;;;;4.73;3.80;;;;;;;;;;5053639;28;20190;-56
2023/02/18 00:56:56;;;;;;;3.67;3.23;;;;;;;;;;5053248;28;20179;-55
2023/02/18 00:59:22;;;;;;;4.17;3.07;;;;;;;;;;5053791;28;20190;-56
2023/02/18 01:01:48;;;;;;;3.73;3.03;;;11.00;99.90;;;;;;5053507;28;20183;-56
2023/02/18 01:04:13;;;;;;;3.40;3.10;;;11.10;99.90;;;;;;5053665;28;20187;-51
2023/02/18 01:06:39;;;;;;;3.67;3.37;;;11.10;99.90;;;;;;5053094;28;20203;-56
2023/02/18 01:09:05;;;;;;;3.57;3.20;;;;;;;;;;5053410;28;20240;-57
2023/02/18 01:11:31;;;;;;;4.03;3.27;;;10.70;99.90;;;;;;5053435;28;20210;-55
2023/02/18 01:13:57;;;;;;;3.77;3.17;;;10.60;99.90;;;;;;5053404;28;20179;-57
2023/02/18 01:16:23;;;;;;;4.33;3.00;;;;;;;;;;5053191;28;20193;-58
2023/02/18 01:18:49;;;;;;;3.67;2.60;;;10.20;99.90;;;;;;5052999;28;20207;-52
2023/02/18 01:21:14;;;;;;;2.87;2.57;;;10.60;99.90;;;;;;5053538;28;20244;-55
2023/02/18 01:23:40;;;;;;;3.40;2.80;;;10.60;99.90;;;;;;5053124;28;20646;-57
2023/02/18 01:26:07;;;;;;;3.80;2.97;;;10.80;99.90;;;;;;5052997;28;20203;-56
2023/02/18 01:28:33;;;;;;;2.80;2.60;;;10.70;99.90;;;;;;5052935;28;20582;-53
2023/02/18 01:31:05;;;;;;;2.90;2.30;;;10.70;99.90;;;;;;5053065;28;20262;-57
2023/02/18 01:33:31;;;;;;;4.03;2.53;;;11.00;99.90;;;;;;5053041;28;20175;-53
2023/02/18 01:35:56;;;;;;;2.67;2.40;;;10.50;99.90;;;;;;5052154;28;20186;-55
2023/02/18 01:38:22;;;;;;;3.27;2.30;;;10.70;99.90;;;;;;5034811;28;20669;-52
2023/02/18 01:40:50;;;;;;;2.80;2.20;;;10.90;99.90;;;;;;5052888;28;20214;-54
2023/02/18 01:43:18;;;;;;;2.60;2.13;;;10.90;99.90;;;;;;5052958;28;20190;-57
2023/02/18 01:45:55;;;;;;;2.23;2.03;;;10.60;99.90;;;;;;5052437;28;20210;-54
2023/02/18 01:48:29;;;;;;;3.33;2.37;;;10.80;99.90;;;;;;5052390;28;20194;-57
2023/02/18 01:51:04;;;;;;;3.27;2.63;;;10.60;99.90;;;;;;5052820;28;20296;-55
2023/02/18 01:53:39;;;;;;;2.87;2.57;;;11.00;99.90;;;;;;5034792;28;20178;-57
2023/02/18 01:56:11;;;;;;;3.30;2.87;;;10.50;99.90;;;;;;5052476;28;20182;-54
2023/02/18 01:58:37;;;;;;;5.57;3.17;;;11.30;99.90;;;;;;5034291;28;20227;-58
2023/02/18 02:01:03;;;;;;;3.13;2.50;;;;;;;;;;5052613;28;20230;-57
2023/02/18 02:03:29;;;;;;;2.20;2.00;;;;;;;;;;5052488;28;20624;-58
2023/02/18 02:05:55;;;;;;;2.63;2.03;;;11.00;99.90;;;;;;5052281;28;20341;-57
2023/02/18 02:08:21;;;;;;;1.73;1.63;;;11.40;99.90;;;;;;5052127;28;20206;-58
2023/02/18 02:10:52;;;;;;;2.20;1.67;;;11.10;99.90;;;;;;5052321;28;20252;-52
2023/02/18 02:13:43;;;;;;;2.70;1.80;;;11.00;99.90;;;;;;5052248;28;20183;-56
2023/02/18 02:16:18;;;;;;;2.00;1.80;;;;;;;;;;5052146;28;20802;-53
2023/02/18 02:18:52;;;;;;;2.73;1.80;;;11.00;99.90;;;;;;5051811;28;20241;-54
2023/02/18 02:21:50;;;;;;;2.53;1.60;;;;;;;;;;5051915;28;20186;-55
2023/02/18 02:24:34;;;;;;;2.20;2.00;;;;;;;;;;4990531;28;20566;-56
2023/02/18 02:27:11;;;;;;;1.67;1.57;;;11.00;99.90;;;;;;4990155;28;20295;-57
2023/02/18 02:29:58;;;;;;;1.47;1.37;;;10.90;99.90;;;;;;4990289;28;20267;-53
2023/02/18 02:32:35;;;;;;;2.10;1.43;;;11.10;99.90;;;;;;4990513;28;20592;-56
2023/02/18 02:35:19;;;;;;;1.30;1.17;;;11.10;99.90;;;;;;4990438;28;20192;-53
2023/02/18 02:38:10;;;;;;;1.40;1.30;;;12.10;99.90;;;;;;4989838;28;20213;-55
2023/02/18 02:40:41;;;;;;;1.60;1.50;;;;;;;;;;4990254;28;20291;-54
2023/02/18 02:43:19;;;;;;;2.23;1.57;;;;;;;;;;4990317;28;20271;-56
2023/02/18 02:46:18;;;;;;;1.67;1.40;;;11.10;99.90;;;;;;4990142;28;20397;-57
2023/02/18 02:49:07;;;;;;;1.53;1.43;;;11.20;99.90;;;;;;4989838;28;20348;-57
2023/02/18 02:51:45;;;;;;;1.10;1.00;;;11.10;99.90;;;;;;4990203;28;20185;-53
2023/02/18 02:54:20;;;;;;;1.50;1.40;;;11.50;99.90;;;;;;4990198;28;20212;-55
2023/02/18 02:56:46;;;;;;;1.50;1.40;;;;;;;;;;4989749;28;20184;-58
2023/02/18 02:59:24;;;;;;;1.73;1.57;;;11.10;99.90;;;;;;5003802;28;20210;-57
2023/02/18 03:01:56;;;;;;;2.70;1.70;;;;;;;;;;5051317;28;20265;-54
2023/02/18 03:04:39;;;;;;;2.57;1.50;;;11.00;99.90;;;;;;5051410;28;20190;-52
2023/02/18 03:07:24;;;;;;;2.70;1.50;;;;;;;;;;5051077;28;20210;-58
2023/02/18 03:10:20;;;;;;;1.40;1.23;;;11.00;99.90;;;;;;5051389;28;20232;-56
2023/02/18 03:13:21;;;;;;;1.67;1.47;;;11.10;99.90;;;;;;5051454;28;20588;-57
2023/02/18 03:16:08;;;;;;;1.83;1.50;;;;;;;;;;4989701;28;20268;-59
2023/02/18 03:18:50;;;;;;;1.50;1.30;;;11.20;99.90;;;;;;5047652;28;20252;-57
2023/02/18 03:21:24;;;;;;;2.77;1.30;;;11.10;99.90;;;;;;5051324;28;20198;-57
2023/02/18 03:24:05;;;;;;;2.57;1.63;;;11.50;99.90;;;;;;5051191;28;20187;-57
2023/02/18 03:26:32;;;;;;;1.97;1.60;;;11.00;99.90;;;;;;5051137;28;20207;-57
2023/02/18 03:29:02;;;;;;;1.50;1.27;;;11.10;99.90;;;;;;5050971;28;20195;-56
2023/02/18 03:31:30;;;;;;;1.53;1.43;;;11.10;99.90;;;;;;5051296;28;20270;-57
2023/02/18 03:34:01;;;;;;;1.40;1.30;;;10.80;99.90;;;;;;5051139;28;20175;-57
2023/02/18 03:36:28;;;;;;;2.37;1.53;;;11.50;99.90;;;;;;5051196;28;20567;-58
2023/02/18 03:39:15;;;;;;;1.40;1.30;;;11.30;99.90;;;;;;5050835;28;20203;-59
2023/02/18 03:41:42;;;;;;;2.13;1.40;;;11.30;99.90;;;;;;5051213;28;20554;-57
2023/02/18 03:44:09;;;;;;;1.27;1.17;;;11.10;99.90;;;;;;5051185;28;20194;-57
2023/02/18 03:46:38;;;;;;;1.43;1.33;;;10.90;99.90;;;;;;5050936;28;20733;-59
2023/02/18 03:49:04;;;;;;;4.73;1.67;;;;;;;;;;5050921;28;20195;-58
2023/02/18 03:51:30;;;;;;;1.57;1.30;;;10.80;99.90;;;;;;5051071;28;20229;-55
2023/02/18 03:53:56;;;;;;;1.70;1.37;;;11.40;99.90;;;;;;5051047;28;20175;-58
2023/02/18 03:56:22;;;;;;;1.20;1.10;;;11.50;99.90;;;;;;5050885;28;20190;-58
2023/02/18 03:58:47;;;;;;;1.27;1.17;;;11.50;99.90;;;;;;5050418;28;20234;-56
2023/02/18 04:01:13;;;;;;;2.00;1.40;;;11.30;99.90;;;;;;5054865;28;20245;-55
2023/02/18 04:03:39;;;;;;;1.30;1.20;;;;;;;;;;5054664;28;20562;-53
2023/02/18 04:06:05;;;;;;;2.70;1.53;;;;;;;;;;5054514;28;20196;-55
2023/02/18 04:08:31;;;;;;;1.47;1.37;;;;;;;;;;5054257;28;20199;-53
2023/02/18 04:10:57;;;;;;;2.63;1.33;;;;;;;;;;5054616;28;20244;-56
2023/02/18 04:13:23;;;;;;;1.30;1.20;;;;;;;;;;5054383;28;20179;-54
2023/02/18 04:15:50;;;;;;;1.57;1.37;;;;;;;;;;5054749;28;20869;-56
2023/02/18 04:18:16;;;;;;;1.50;1.40;;;;;;;;;;5054287;28;20280;-54
2023/02/18 04:20:42;;;;;;;1.20;1.20;;;;;;;;;;5054354;28;20256;-56
2023/02/18 04:23:08;;;;;;;1.13;1.03;;;;;;;;;;5035898;28;20194;-56
2023/02/18 04:25:34;;;;;;;1.57;1.20;;;;;;;;;;5054008;28;20210;-56
2023/02/18 04:28:00;;;;;;;1.20;1.17;;;;;;;;;;5036018;28;20198;-56
2023/02/18 04:30:27;;;;;;;2.10;1.63;;;;;;;;;;5036449;28;20183;-53
2023/02/18 04:32:52;;;;;;;1.33;1.23;;;11.20;99.90;;;;;;5054160;28;20237;-53
2023/02/18 04:35:18;;;;;;;2.37;1.40;;;;;;;;;;5054164;28;20191;-56
2023/02/18 04:37:44;;;;;;;2.83;1.60;;;11.50;99.90;;;;;;5053799;28;20686;-52
2023/02/18 04:40:10;;;;;;;1.20;1.10;;;11.30;99.90;;;;;;5054314;28;20245;-56
2023/02/18 04:42:36;;;;;;;1.40;1.30;;;11.50;99.90;;;;;;5053917;28;20190;-57
2023/02/18 04:45:02;;;;;;;1.67;1.30;;;11.10;99.90;;;;;;5053958;28;20186;-52
2023/02/18 04:47:28;;;;;;;1.60;1.43;;;10.70;99.90;;;;;;5053683;28;20640;-53
2023/02/18 04:49:53;;;;;;;2.53;1.60;;;11.30;99.90;;;;;;5053873;28;20179;-56
2023/02/18 04:52:19;;;;;;;3.43;1.40;;;12.70;99.90;;;;;;5053940;28;20187;-53
2023/02/18 04:54:45;;;;;;;1.50;1.40;;;11.60;99.90;;;;;;5053822;28;20171;-52
2023/02/18 04:57:10;;;;;;;1.83;1.50;;;11.60;99.90;;;;;;5053325;28;20214;-54
2023/02/18 04:59:36;;;;;;;1.87;1.50;;;11.20;99.90;;;;;;5053850;28;20191;-52
2023/02/18 05:02:02;;;;;;;2.40;1.50;;;11.10;99.90;;;;;;5053575;28;20205;-54
2023/02/18 05:04:27;;;;;;;1.60;1.50;;;11.40;99.90;;;;;;5053622;28;20193;-52
2023/02/18 05:06:53;;;;;;;2.30;1.27;;;11.10;99.90;;;;;;5053089;28;20259;-56
2023/02/18 05:09:18;;;;;;;1.43;1.30;;;11.20;99.90;;;;;;5053614;28;20649;-54
2023/02/18 05:11:44;;;;;;;1.77;1.67;;;;;;;;;;5052190;28;20194;-55
2023/02/18 05:14:11;;;;;;;2.27;1.40;;;;;;;;;;5052864;28;20184;-55
2023/02/18 05:16:36;;;;;;;1.93;1.60;;;;;;;;;;5053329;28;20321;-56
2023/02/18 05:19:02;;;;;;;1.53;1.43;;;;;;;;;;5053004;28;20630;-55
2023/02/18 05:21:28;;;;;;;1.53;1.43;;;11.00;99.90;;;;;;5053377;28;20266;-53
2023/02/18 05:23:54;;;;;;;1.60;1.50;;;;;;;;;;5053194;28;20193;-52
2023/02/18 05:26:20;;;;;;;1.77;1.60;;;11.40;99.90;;;;;;5053054;28;20329;-57
2023/02/18 05:28:45;;;;;;;2.30;1.50;;;11.60;99.90;;;;;;5052868;28;20250;-53
2023/02/18 05:31:11;;;;;;;1.33;1.23;;;;;;;;;;5053210;28;20183;-57
2023/02/18 05:33:37;;;;;;;2.23;1.40;;;11.10;99.90;;;;;;5053038;28;20179;-53
2023/02/18 05:36:02;;;;;;;1.43;1.33;;;11.50;99.90;;;;;;5052898;28;20198;-54
2023/02/18 05:38:29;;;;;;;2.37;1.30;;;;;;;;;;5052847;28;20286;-53
2023/02/18 05:40:55;;;;;;;2.40;1.50;;;11.50;99.90;;;;;;5034974;28;20195;-55
2023/02/18 05:43:20;;;;;;;1.37;1.27;;;11.50;99.90;;;;;;5052980;28;20191;-55
2023/02/18 05:45:46;;;;;;;1.57;1.40;;;;;;;;;;5052602;28;20194;-54
2023/02/18 05:48:12;;;;;;;1.40;1.20;;;11.20;99.90;;;;;;5052439;28;20199;-57
2023/02/18 05:50:38;;;;;;;1.23;1.13;;;;;;;;;;5052727;28;20236;-52
2023/02/18 05:53:03;;;;;;;1.70;1.43;;;11.60;99.90;;;;;;5052685;28;20175;-54
2023/02/18 05:55:29;;;;;;;1.30;1.20;;;11.60;99.90;;;;;;5052626;28;20175;-54
2023/02/18 05:57:54;;;;;;;1.93;1.40;;;11.90;99.90;;;;;;5052603;28;20237;-57
2023/02/18 06:00:21;;;;;;;3.47;1.53;;;;;;;;;;5052583;28;20175;-54
2023/02/18 06:02:46;;;;;;;1.70;1.53;;;11.20;99.90;;;;;;5052382;28;20673;-55
2023/02/18 06:05:12;;;;;;;1.83;1.60;;;11.30;99.90;;;;;;5052769;28;20232;-55
2023/02/18 06:07:37;;;;;;;1.33;1.23;;;11.60;99.90;;;;;;5052105;28;20215;-56
2023/02/18 06:10:04;;;;;;;1.40;1.30;;;12.50;99.90;;;;;;5052247;28;20175;-55
2023/02/18 06:12:30;;;;;;;1.57;1.47;;;11.40;99.90;;;;;;5052268;28;20194;-53
2023/02/18 06:14:55;;;;;;;2.13;1.60;;;11.10;99.90;;;;;;5052217;28;20704;-52
2023/02/18 06:17:21;;;;;;;1.80;1.57;;;10.70;99.90;;;;;;5051852;28;20768;-53
2023/02/18 06:19:47;;;;;;;1.70;1.60;;;11.10;99.90;;;;;;5051015;28;20700;-57
2023/02/18 06:22:13;;;;;;;1.73;1.63;;;11.00;99.90;;;;;;5051832;28;20183;-51
2023/02/18 06:24:39;;;;;;;2.37;1.60;;;;;;;;;;5034242;28;20532;-54
2023/02/18 06:27:05;;;;;;;1.70;1.60;;;11.10;99.90;;;;;;5051499;28;20213;-55
2023/02/18 06:29:31;;;;;;;2.07;1.70;;;11.00;99.90;;;;;;5052182;28;20206;-57
2023/02/18 06:31:58;;;;;;;1.67;1.57;;;10.90;99.90;;;;;;5051887;28;20183;-53
2023/02/18 06:34:24;;;;;;;3.67;1.70;;;11.30;99.90;;;;;;5052033;28;20283;-57
2023/02/18 06:36:49;;;;;;;2.23;1.67;;;10.70;99.90;;;;;;5051499;28;20183;-55
2023/02/18 06:39:15;;;;;;;1.90;1.67;;;11.00;99.90;;;;;;5051828;28;20688;-57
2023/02/18 06:41:41;;;;;;;2.10;1.90;;;10.70;99.90;;;;;;5051820;28;20727;-57
2023/02/18 06:44:07;;;;;;;1.63;1.53;;;11.10;99.90;;;;;;5051603;28;20656;-56
2023/02/18 06:46:32;;;;;;;1.63;1.53;;;11.10;99.90;;;;;;5051547;28;20704;-58
2023/02/18 06:48:58;;;;;;;2.53;1.80;;;11.30;99.90;;;;;;5051358;28;20214;-57
2023/02/18 06:51:24;;;;;;;1.83;1.73;;;11.40;99.90;;;;;;5051706;28;20179;-54
2023/02/18 06:53:50;;;;;;;2.67;1.90;;;11.10;99.90;;;;;;5051554;28;20256;-57
2023/02/18 06:56:15;;;;;;;2.00;1.80;;;10.90;99.90;;;;;;5051435;28;20233;-54
2023/02/18 06:58:41;;;;;;;2.07;1.87;;;11.20;99.90;;;;;;5051308;28;20219;-53
2023/02/18 07:01:06;;;;;;;3.20;2.20;;;11.30;99.90;;;;;;5051478;28;20383;-55
2023/02/18 07:03:32;;;;;;;2.13;1.93;;;10.90;99.90;;;;;;5051606;28;20275;-53
2023/02/18 07:05:58;;;;;;;2.07;1.97;;;;;;;;;;5051228;28;20569;-54
2023/02/18 07:08:24;;;;;;;2.53;2.10;;;11.30;99.90;;;;;;5051204;28;20195;-55
2023/02/18 07:10:50;;;;;;;1.90;1.70;;;;;;;;;;5050838;28;20250;-55
2023/02/18 07:13:16;;;;;;;2.10;1.90;;;;;;;;;;5051103;28;20175;-57
2023/02/18 07:15:42;;;;;;;2.30;1.97;;;;;;;;;;5051171;28;20179;-58
2023/02/18 07:18:08;;;;;;;2.13;2.00;;;;;;;;;;5050739;28;20195;-54
2023/02/18 07:20:34;;;;;;;1.90;1.80;;;11.30;99.90;;;;;;5051378;28;20758;-55
2023/02/18 07:23:00;;;;;;;3.97;1.93;;;11.10;99.90;;;;;;5051253;28;20201;-56
2023/02/18 07:25:25;;;;;;;2.00;1.83;;;11.00;99.90;;;;;;5051229;28;20218;-56
2023/02/18 07:27:51;;;;;;;1.70;1.60;;;11.30;99.90;;;;;;5050779;28;20268;-51
2023/02/18 07:30:18;;;;;;;1.67;1.57;;;11.20;99.90;;;;;;5050780;28;20257;-56
2023/02/18 07:32:44;;;;;;;2.20;1.88;;;11.50;99.90;;;;;;5050168;28;20438;-56
2023/02/18 07:35:13;;;;;;;3.13;1.77;;;10.80;99.90;;;;;;5056504;28;20178;-54
2023/02/18 07:37:39;;;;;;;1.97;1.77;;;10.80;99.90;;;;;;5053924;28;20256;-53
2023/02/18 07:40:05;;;;;;;1.67;1.57;;;10.90;99.90;;;;;;5054531;28;20190;-52
2023/02/18 07:42:31;;;;;;;1.97;1.33;;;10.90;99.90;;;;;;5054528;28;20179;-58
2023/02/18 07:44:56;;;;;;;1.63;1.53;;;11.10;99.90;;;;;;5053806;28;20178;-51
2023/02/18 07:47:22;;;;;;;1.60;1.50;;;11.10;99.90;;;;;;5057768;28;20236;-57
2023/02/18 07:49:47;;;;;;;2.17;1.60;;;10.80;99.90;;;;;;5054482;28;20187;-54
2023/02/18 07:52:14;;;;;;;1.43;1.33;;;11.50;99.90;;;;;;5054301;28;20244;-52
2023/02/18 07:54:40;;;;;;;1.37;1.27;;;11.00;99.90;;;;;;5036511;28;20171;-58
2023/02/18 07:57:06;;;;;;;1.73;1.60;;;;;;;;;;5057007;28;20203;-56
2023/02/18 07:59:31;;;;;;;1.57;1.40;;;11.00;99.90;;;;;;5036762;28;20178;-51
2023/02/18 08:01:57;;;;;;;1.93;1.40;;;11.20;99.90;;;;;;5054271;28;20183;-58
2023/02/18 08:04:23;;;;;;;2.20;1.60;;;;;;;;;;5053823;28;20272;-57
2023/02/18 08:06:49;;;;;;;1.67;1.53;;;11.60;99.90;;;;;;5053690;28;20261;-58
2023/02/18 08:09:16;;;;;;;1.30;1.20;;;10.00;99.90;;;;;;5028731;28;20191;-53
2023/02/18 08:11:41;;;;;;;1.50;1.40;;;11.80;99.90;;;;;;5054109;28;20184;-57
2023/02/18 08:14:07;;;;;;;1.63;1.33;;;11.40;99.90;;;;;;5053814;28;20571;-52
2023/02/18 08:16:33;;;;;;;1.40;1.30;;;;;;;;;;5054175;28;20244;-51
2023/02/18 08:19:00;;;;;;;1.20;1.20;;;11.90;99.90;;;;;;5053786;28;20198;-51
2023/02/18 08:21:26;;;;;;;1.60;1.47;;;11.30;99.90;;;;;;5053978;28;20179;-56
2023/02/18 08:23:52;;;;;;;1.50;1.40;;;11.60;99.90;;;;;;5054137;28;20182;-55
2023/02/18 08:26:19;;;;;;;1.47;1.37;;;11.50;99.90;;;;;;5052496;28;20287;-56
2023/02/18 08:28:45;;;;;;;1.13;1.13;;;11.50;99.90;;;;;;5051809;28;20195;-58
2023/02/18 08:31:20;;;;;;;1.80;1.43;;;11.80;99.90;;;;;;5054091;28;20557;-55
2023/02/18 08:33:46;;;;;;;1.40;1.30;;;11.90;99.90;;;;;;5053905;28;20257;-57
2023/02/18 08:36:12;;;;;;;1.27;1.20;;;11.90;99.90;;;;;;5056145;28;20266;-57
2023/02/18 08:38:38;;;;;;;1.47;1.37;;;11.90;99.90;;;;;;5054913;28;20320;-57
2023/02/18 08:41:05;;;;;;;1.40;1.30;;;11.90;99.90;;;;;;5059162;28;20187;-54
2023/02/18 08:43:31;;;;;;;2.23;1.50;;;12.10;99.90;;;;;;5060239;28;20263;-58
2023/02/18 08:45:57;;;;;;;1.43;1.30;;;11.80;99.90;;;;;;5052972;28;20433;-57
2023/02/18 08:48:23;;;;;;;1.53;1.43;;;12.30;99.90;;;;;;5061455;28;20269;-58
2023/02/18 08:50:48;;;;;;;1.40;1.30;;;11.80;99.90;;;;;;5052999;28;20313;-59
2023/02/18 08:53:15;;;;;;;1.70;1.30;;;13.90;99.90;;;;;;5053447;28;20200;-59
2023/02/18 08:55:41;;;;;;;1.87;1.23;;;11.70;99.90;;;;;;5053549;28;20255;-56
2023/02/18 08:58:07;;;;;;;1.13;1.13;;;12.20;99.90;;;;;;5053173;28;20308;-58
2023/02/18 09:00:33;;;;;;;1.17;1.10;;;;;;;;;;5052934;28;20541;-59
2023/02/18 09:02:59;;;;;;;1.10;1.00;;;;;;;;;;5053300;28;20200;-59
2023/02/18 09:05:25;;;;;;;1.30;1.20;;;;;;;;;;5053558;28;20176;-58
2023/02/18 09:07:51;;;;;;;1.43;1.33;;;;;;;;;;5053205;28;20231;-57
2023/02/18 09:10:17;;;;;;;1.23;1.13;;;11.90;99.90;;;;;;5053606;28;20382;-58
2023/02/18 09:12:42;;;;;;;1.30;1.20;;;12.20;99.90;;;;;;5053683;28;20172;-59
2023/02/18 09:15:08;;;;;;;1.40;1.30;;;12.40;99.90;;;;;;5053290;28;20180;-57
2023/02/18 09:17:34;;;;;;;2.00;1.17;;;12.10;99.90;;;;;;5052748;28;20195;-59
2023/02/18 09:20:00;;;;;;;1.50;1.23;;;;;;;;;;5053187;28;20207;-57
2023/02/18 09:22:25;;;;;;;1.70;1.60;;;12.10;99.90;;;;;;5053241;28;20673;-59
2023/02/18 09:24:51;;;;;;;2.40;1.30;;;12.20;99.90;;;;;;5035479;28;20179;-58
2023/02/18 09:27:17;;;;;;;1.63;1.50;;;;;;;;;;5052732;28;20210;-59
2023/02/18 09:29:43;;;;;;;1.30;1.20;;;12.60;99.90;;;;;;5053188;28;20187;-57
2023/02/18 09:32:08;;;;;;;1.40;1.30;;;12.40;99.90;;;;;;5052991;28;20171;-59
2023/02/18 09:34:35;;;;;;;1.30;1.20;;;12.30;99.90;;;;;;5052507;28;20636;-58
2023/02/18 09:37:01;;;;;;;2.23;1.67;;;12.20;99.90;;;;;;5052624;28;20646;-55
2023/02/18 09:39:26;;;;;;;1.53;1.43;;;12.50;99.90;;;;;;5052938;28;20181;-59
2023/02/18 09:41:56;;;;;;;1.30;1.20;;;12.30;99.90;;;;;;5053016;28;20180;-58
2023/02/18 09:44:38;;;;;;;1.20;1.20;;;12.50;99.90;;;;;;5044929;28;20179;-59
2023/02/18 09:47:15;;;;;;;1.47;1.20;;;;;;;;;;5034415;28;20709;-58
2023/02/18 09:49:43;;;;;;;1.40;1.30;;;;;;;;;;5053030;28;20231;-59
2023/02/18 09:52:19;;;;;;;1.53;1.43;;;12.50;99.90;;;;;;5052753;28;20179;-60
2023/02/18 09:54:45;;;;;;;1.33;1.23;;;12.90;99.90;;;;;;5052856;28;20182;-56
2023/02/18 09:57:42;;;;;;;1.40;1.30;;;12.80;99.90;;;;;;5051080;28;20217;-58
2023/02/18 10:00:31;;;;;;;1.23;1.13;;;;;;;;;;5051140;28;20227;-58
2023/02/18 10:03:07;;;;;;;1.40;1.30;;;12.90;99.90;;;;;;5051829;28;20633;-60
2023/02/18 10:05:35;;;;;;;2.47;1.27;;;13.40;99.90;;;;;;5051881;28;20209;-58
2023/02/18 10:08:05;;;;;;;1.70;1.30;;;13.10;99.90;;;;;;5051291;28;20575;-57
2023/02/18 10:10:42;;;;;;;1.30;1.20;;;13.10;99.90;;;;;;5051759;28;20218;-59
2023/02/18 10:13:14;;;;;;;1.43;1.33;;;12.90;99.90;;;;;;5051718;28;20174;-54
2023/02/18 10:15:41;;;;;;;1.47;1.37;;;12.70;99.90;;;;;;5051369;28;20202;-58
2023/02/18 10:18:23;;;;;;;1.63;1.23;;;12.60;99.90;;;;;;5051154;28;20206;-58
2023/02/18 10:20:50;;;;;;;1.47;1.37;;;13.10;99.90;;;;;;5051422;28;20175;-59
2023/02/18 10:23:17;;;;;;;1.33;1.23;;;13.20;99.90;;;;;;5051439;28;20550;-57
2023/02/18 10:25:45;;;;;;;1.50;1.40;;;13.00;99.90;;;;;;5051512;28;20183;-58
2023/02/18 10:28:11;;;;;;;1.43;1.33;;;12.90;99.90;;;;;;5051106;28;20549;-58
2023/02/18 10:30:49;;;;;;;1.67;1.57;;;13.00;99.90;;;;;;5051308;28;20598;-59
2023/02/18 10:33:30;;;;;;;1.77;1.67;;;;;;;;;;5051270;28;20186;-55
2023/02/18 10:36:40;;;;;;;1.83;1.53;;;13.20;99.90;;;;;;5033247;28;20321;-54
2023/02/18 10:39:31;;;;;;;1.70;1.60;;;13.60;99.90;;;;;;5051173;28;20625;-57
2023/02/18 10:42:05;;;;;;;1.70;1.60;;;;;;;;;;5051197;28;20178;-58
2023/02/18 10:44:55;;;;;;;1.63;1.53;;;13.40;99.90;;;;;;5033325;28;20244;-54
2023/02/18 10:47:37;;;;;;;1.37;1.20;;;13.40;99.90;;;;;;5050585;28;20599;-54
2023/02/18 10:50:29;;;;;;;2.27;1.47;;;13.60;99.90;;;;;;5050906;28;20167;-55
2023/02/18 10:53:00;;;;;;;1.73;1.53;;;13.60;99.90;;;;;;5051061;28;20253;-54
2023/02/18 10:55:40;;;;;;;1.50;1.40;;;;;;;;;;5051110;28;20175;-54
2023/02/18 10:58:25;;;;;;;1.77;1.30;;;;;;;;;;5050472;28;20224;-57
2023/02/18 11:00:51;;;;;;;1.40;1.30;;;13.40;99.90;;;;;;5051051;28;20593;-54
2023/02/18 11:03:21;;;;;;;1.93;1.77;;;13.40;99.90;;;;;;5050674;28;20251;-54
2023/02/18 11:05:49;;;;;;;1.83;1.20;;;13.10;99.90;;;;;;5050845;28;20175;-58
2023/02/18 11:08:20;;;;;;;1.30;1.20;;;13.30;99.90;;;;;;5050326;28;20209;-58
2023/02/18 11:10:47;;;;;;;1.60;1.50;;;13.20;99.90;;;;;;5050804;28;20186;-58
2023/02/18 11:13:16;;;;;;;1.93;1.73;;;13.30;99.90;;;;;;5050646;28;20194;-58
2023/02/18 11:15:54;;;;;;;1.30;1.20;;;;;;;;;;5050786;28;20171;-56
2023/02/18 11:18:32;;;;;;;1.27;1.17;;;14.00;99.90;;;;;;5050453;28;20666;-57
2023/02/18 11:21:02;;;;;;;1.30;1.20;;;12.50;99.90;;;;;;5050728;28;20171;-54
2023/02/18 11:23:28;;;;;;;1.23;1.13;;;;;;;;;;5050803;28;20235;-56
2023/02/18 11:26:05;;;;;;;1.40;1.30;;;13.60;99.90;;;;;;5050433;28;20194;-54
2023/02/18 11:28:48;;;;;;;1.10;1.10;;;13.40;99.90;;;;;;5050375;28;20191;-55
2023/02/18 11:31:22;;;;;;;1.57;1.47;;;;;;;;;;5050527;28;20179;-56
2023/02/18 11:33:58;;;;;;;1.33;1.23;;;13.80;99.90;;;;;;5050515;28;20660;-56
2023/02/18 11:36:26;;;;;;;1.20;1.20;;;13.70;99.90;;;;;;5050275;28;20198;-52
2023/02/18 11:38:55;;;;;;;1.10;1.10;;;14.20;99.90;;;;;;5050309;28;20205;-52
2023/02/18 11:42:02;;;;;;;1.20;1.10;;;14.30;99.90;;;;;;5050307;28;20206;-58
2023/02/18 11:44:32;;;;;;;3.43;1.20;;;14.50;99.90;;;;;;5042310;28;20223;-54
2023/02/18 11:47:03;;;;;;;1.50;1.17;;;13.70;99.90;;;;;;5050022;28;20230;-54
2023/02/18 11:49:30;;;;;;;1.40;1.30;;;14.00;99.90;;;;;;5050481;28;20732;-55
2023/02/18 11:52:03;;;;;;;1.30;1.20;;;;;;;;;;5050543;28;20297;-55
2023/02/18 11:54:30;;;;;;;1.17;1.17;;;14.30;99.90;;;;;;5050482;28;20221;-57
2023/02/18 11:57:00;;;;;;;1.10;1.00;;;14.10;99.90;;;;;;5049886;28;20282;-57
2023/02/18 11:59:28;;;;;;;1.03;1.03;;;14.20;99.90;;;;;;5050919;28;20187;-56
2023/02/18 12:02:22;;;;;;;1.20;1.10;;;13.80;99.90;;;;;;5050309;28;20187;-58
2023/02/18 12:04:59;;;;;;;1.30;1.20;;;13.80;99.90;;;;;;5044345;28;20191;-56
2023/02/18 12:07:43;;;;;;;1.07;1.07;;;14.00;99.90;;;;;;5049869;28;20211;-57
2023/02/18 12:10:22;;;;;;;1.07;1.00;;;14.60;99.90;;;;;;5050474;28;20296;-57
2023/02/18 12:12:51;;;;;;;1.30;1.10;;;14.00;99.90;;;;;;5050276;28;20538;-56
2023/02/18 12:15:25;;;;;;;1.00;1.00;;;14.10;99.90;;;;;;5050054;28;20176;-59
2023/02/18 12:18:05;;;;;;;1.40;1.30;;;14.40;99.90;;;;;;5049781;28;20538;-55
2023/02/18 12:20:46;;;;;;;1.20;1.10;;;;;;;;;;5043103;28;20258;-56
2023/02/18 12:23:18;;;;;;;0.90;0.90;;;13.60;99.90;;;;;;5053329;28;20736;-55
2023/02/18 12:25:59;;;;;;;1.30;1.20;;;;;;;;;;5053542;28;20184;-56
2023/02/18 12:28:33;;;;;;;0.90;0.90;;;13.90;99.90;;;;;;5053200;28;20211;-56
2023/02/18 12:30:59;;;;;;;1.10;1.07;;;;;;;;;;5053763;28;20175;-58
2023/02/18 12:33:46;;;;;;;0.93;0.93;;;13.80;99.90;;;;;;5053399;28;20600;-56
2023/02/18 12:36:35;;;;;;;0.87;0.87;;;13.80;99.90;;;;;;5053309;28;20212;-57
2023/02/18 12:39:44;;;;;;;1.20;0.97;;;13.80;99.90;;;;;;5053363;28;20684;-56
2023/02/18 12:42:19;;;;;;;1.03;0.93;;;13.90;99.90;;;;;;5053242;28;20210;-57
2023/02/18 12:45:18;;;;;;;1.97;1.00;;;13.90;99.90;;;;;;5053363;28;20793;-57
2023/02/18 12:48:15;;;;;;;0.87;0.87;;;14.00;99.90;;;;;;5052885;28;20346;-54
2023/02/18 12:51:38;;;;;;;1.43;1.00;;;13.70;99.90;;;;;;5048876;28;20223;-58
2023/02/18 12:54:30;;;;;;;1.00;0.77;;;;;;;;;;4991479;28;20201;-55
2023/02/18 12:56:56;;;;;;;0.90;0.90;;;;;;;;;;4987406;28;20272;-57
2023/02/18 12:59:59;;;;;;;0.90;0.90;;;14.10;99.90;;;;;;4991454;28;20785;-54
2023/02/18 13:02:43;;;;;;;0.77;0.70;;;14.10;99.90;;;;;;4991260;28;20193;-56
2023/02/18 13:05:29;;;;;;;0.60;0.60;;;14.30;99.90;;;;;;4991232;28;20181;-55
2023/02/18 13:08:13;;;;;;;1.00;0.90;;;13.90;99.90;;;;;;4990856;28;20220;-57
2023/02/18 13:11:11;;;;;;;0.70;0.70;;;14.00;99.90;;;;;;4991413;28;20276;-58
2023/02/18 13:13:47;;;;;;;2.50;0.90;;;13.60;99.90;;;;;;4991363;28;20189;-56
2023/02/18 13:16:15;;;;;;;0.70;0.70;;;14.20;99.90;;;;;;4991016;28;20684;-58
2023/02/18 13:18:54;;;;;;;1.37;0.73;;;14.10;99.90;;;;;;4990895;28;20216;-57
2023/02/18 13:21:20;;;;;;;0.90;0.73;;;14.00;99.90;;;;;;4991013;28;20197;-58
2023/02/18 13:24:15;;;;;;;0.70;0.70;;;14.20;99.90;;;;;;4991165;28;20181;-52
2023/02/18 13:26:45;;;;;;;0.50;0.50;;;14.40;99.90;;;;;;4988844;28;20205;-55
2023/02/18 13:29:25;;;;;;;0.70;0.70;;;14.30;99.90;;;;;;5050433;28;20218;-56
2023/02/18 13:31:51;;;;;;;1.10;0.90;;;;;;;;;;5051432;28;20175;-56